Terminal Aerodrome Forecast
Issued by NWS

Home | Current Version | Previous Version | Text Only | Print | Product List | Glossary On
Versions: 1 2 3 4 5 6 7 8 9 10 11 12 13 14 15 16 17 18 19 20 21
000
FTUS42 KTBW 251751
TAFLAL
TAF
KLAL 251751Z 2518/2618 25010G17KT P6SM SCT030 SCT250
      TEMPO 2518/2520 BKN030
     FM260000 22008KT P6SM FEW030 SCT250
     FM260600 21007KT P6SM SCT015 SCT250
     FM261400 26013KT P6SM SCT025 SCT250=

USA.gov is the U.S. government's official web portal to all federal, state and local government web resources and services.